createdAt,value
2024-03-02T00:00:53.331Z,94176.09
2024-03-02T00:03:21.813Z,94176.09
2024-03-02T00:05:53.627Z,94182.88
2024-03-02T00:08:27.436Z,94177.78
2024-03-02T00:10:59.928Z,94176.44
2024-03-02T00:13:29.515Z,94175.28
2024-03-02T00:15:58.999Z,94165.34
2024-03-02T00:18:32.503Z,94177.75
2024-03-02T00:21:01.152Z,94161.31
2024-03-02T00:23:32.056Z,94155.47
2024-03-02T00:26:01.438Z,94161.56
2024-03-02T00:28:35.555Z,94155.91
2024-03-02T00:31:08.769Z,94162.00
2024-03-02T00:33:38.469Z,94161.88
2024-03-02T00:36:08.077Z,94158.06
2024-03-02T00:38:36.738Z,94157.72
2024-03-02T00:41:09.171Z,94156.91
2024-03-02T00:44:05.134Z,94156.19
2024-03-02T00:46:36.093Z,94157.44
2024-03-02T00:49:05.921Z,94165.50
2024-03-02T00:51:37.033Z,94164.38
2024-03-02T00:54:06.893Z,94163.13
2024-03-02T00:56:36.738Z,94162.56
2024-03-02T00:59:06.241Z,94162.22
2024-03-02T01:01:34.250Z,94162.22
2024-03-02T01:04:02.360Z,94165.41
2024-03-02T01:06:30.431Z,94167.78
2024-03-02T01:08:58.595Z,94165.84
2024-03-02T01:11:26.813Z,94159.84
2024-03-02T01:13:54.928Z,94170.22
2024-03-02T01:16:24.493Z,94160.22
2024-03-02T01:18:52.766Z,94163.56
2024-03-02T01:21:20.951Z,94152.75
2024-03-02T01:23:49.247Z,94150.03
2024-03-02T01:26:17.343Z,94152.75
2024-03-02T01:28:45.382Z,94152.53
2024-03-02T01:31:13.498Z,94153.53
2024-03-02T01:33:42.992Z,94157.72
2024-03-02T01:36:11.129Z,94159.63
2024-03-02T01:38:39.235Z,94154.22
2024-03-02T01:41:07.399Z,94149.47
2024-03-02T01:43:37.046Z,94155.75
2024-03-02T01:46:06.759Z,94145.03
2024-03-02T01:48:35.401Z,94137.84
2024-03-02T01:51:06.377Z,94143.47
2024-03-02T01:53:34.694Z,94136.81
2024-03-02T01:56:02.769Z,94137.50
2024-03-02T01:58:30.906Z,94134.56
2024-03-02T02:00:59.038Z,94141.88
2024-03-02T02:03:27.222Z,94133.53
2024-03-02T02:05:55.450Z,94130.72
2024-03-02T02:08:24.891Z,94122.50
2024-03-02T02:10:53.596Z,94122.50
2024-03-02T02:13:21.740Z,94129.47
2024-03-02T02:15:49.957Z,94115.75
2024-03-02T02:18:18.074Z,94122.34
2024-03-02T02:20:46.181Z,94120.72
2024-03-02T02:23:15.542Z,94126.38
2024-03-02T02:25:43.710Z,94119.03
2024-03-02T02:28:11.783Z,94118.47
2024-03-02T02:30:39.867Z,94113.72
2024-03-02T02:33:08.020Z,94101.78
2024-03-02T02:35:36.140Z,94098.28
2024-03-02T02:38:05.386Z,94098.97
2024-03-02T02:40:34.871Z,94096.38
2024-03-02T02:43:02.985Z,94099.41
2024-03-02T02:45:31.793Z,94093.88
2024-03-02T02:47:59.884Z,94087.91
2024-03-02T02:50:27.897Z,94081.03
2024-03-02T02:52:55.970Z,94074.84
2024-03-02T02:55:24.017Z,94071.13
2024-03-02T02:57:53.414Z,94075.38
2024-03-02T03:00:23.651Z,94075.84
2024-03-02T03:02:52.114Z,94072.25
2024-03-02T03:05:20.857Z,94072.25
2024-03-02T03:07:51.185Z,94068.19
2024-03-02T03:10:22.080Z,94064.09
2024-03-02T03:12:50.322Z,94055.44
2024-03-02T03:15:20.032Z,94064.09
2024-03-02T03:17:48.700Z,94057.59
2024-03-02T03:20:17.214Z,94059.03
2024-03-02T03:22:45.567Z,94059.72
2024-03-02T03:25:13.784Z,94066.59
2024-03-02T03:27:42.819Z,94058.81
2024-03-02T03:30:12.177Z,94062.88
2024-03-02T03:32:41.630Z,94062.66
2024-03-02T03:35:10.335Z,94071.31
2024-03-02T03:37:38.368Z,94062.28
2024-03-02T03:40:11.567Z,94067.59
2024-03-02T03:42:40.211Z,94070.66
2024-03-02T03:45:09.392Z,94076.84
2024-03-02T03:47:37.552Z,94086.00
2024-03-02T03:50:08.756Z,94080.22
2024-03-02T03:52:37.084Z,94087.59
2024-03-02T03:55:06.637Z,94085.56
2024-03-02T03:57:35.138Z,94079.13
2024-03-02T04:00:03.391Z,94067.59
2024-03-02T04:02:40.265Z,94073.34
2024-03-02T04:05:12.608Z,94071.78
2024-03-02T04:07:42.328Z,94080.47
2024-03-02T04:10:11.566Z,94083.06
2024-03-02T04:12:39.830Z,94080.59
2024-03-02T04:15:08.790Z,94086.91
2024-03-02T04:17:37.219Z,94076.41
2024-03-02T04:20:06.919Z,94067.06
2024-03-02T04:22:37.420Z,94065.47
2024-03-02T04:25:08.396Z,94065.00
2024-03-02T04:27:36.717Z,94064.56
2024-03-02T04:30:06.954Z,94063.53
2024-03-02T04:32:35.206Z,94056.44
2024-03-02T04:35:03.253Z,94058.03
2024-03-02T04:37:32.232Z,94052.84
2024-03-02T04:40:01.734Z,94055.53
2024-03-02T04:42:29.963Z,94057.00
2024-03-02T04:44:58.063Z,94056.91
2024-03-02T04:47:26.064Z,94055.66
2024-03-02T04:49:54.087Z,94067.94
2024-03-02T04:52:22.167Z,94065.25
2024-03-02T04:55:07.661Z,94052.94
2024-03-02T04:57:37.071Z,94063.66
2024-03-02T05:00:08.245Z,94059.94
2024-03-02T05:02:36.447Z,94067.59
2024-03-02T05:05:04.959Z,94064.34
2024-03-02T05:07:32.964Z,94069.28
2024-03-02T05:10:01.321Z,94064.09
2024-03-02T05:12:56.830Z,94065.69
2024-03-02T05:15:26.360Z,94066.25
2024-03-02T05:17:54.574Z,94065.22
2024-03-02T05:20:22.612Z,94059.81
2024-03-02T05:22:50.955Z,94066.84
2024-03-02T05:25:19.028Z,94063.44
2024-03-02T05:27:47.635Z,94052.59
2024-03-02T05:30:16.218Z,94044.13
2024-03-02T05:32:45.618Z,94043.56
2024-03-02T05:35:14.120Z,94046.72
2024-03-02T05:37:42.320Z,94035.69
2024-03-02T05:40:12.420Z,94035.69
2024-03-02T05:42:42.292Z,94033.19
2024-03-02T05:45:10.704Z,94036.34
2024-03-02T05:47:39.662Z,94027.53
2024-03-02T05:50:10.077Z,94023.91
2024-03-02T05:52:38.163Z,94010.38
2024-03-02T05:55:07.159Z,94006.13
2024-03-02T05:57:48.742Z,94007.34
2024-03-02T06:00:18.561Z,94007.88
2024-03-02T06:02:46.926Z,94012.28
2024-03-02T06:05:18.124Z,94003.03
2024-03-02T06:07:46.654Z,94001.00
2024-03-02T06:10:15.639Z,93999.75
2024-03-02T06:12:44.021Z,93999.75
2024-03-02T06:15:12.348Z,93991.41
2024-03-02T06:17:40.535Z,93998.19
2024-03-02T06:20:09.904Z,93989.38
2024-03-02T06:22:39.655Z,93990.94
2024-03-02T06:25:08.327Z,93993.16
2024-03-02T06:27:36.508Z,93987.50
2024-03-02T06:30:05.466Z,93987.97
2024-03-02T06:32:33.720Z,93998.84
2024-03-02T06:35:02.003Z,93995.94
2024-03-02T06:37:30.014Z,93996.44
2024-03-02T06:39:59.550Z,94000.97
2024-03-02T06:42:27.738Z,93994.63
2024-03-02T06:44:55.889Z,93999.34
2024-03-02T06:47:23.922Z,93998.38
2024-03-02T06:49:52.008Z,93998.22
2024-03-02T06:52:23.100Z,94000.47
2024-03-02T06:54:52.758Z,93989.16
2024-03-02T06:57:22.349Z,93996.84
2024-03-02T06:59:52.533Z,93992.59
2024-03-02T07:02:20.626Z,93992.00
2024-03-02T07:04:48.720Z,93990.16
2024-03-02T07:07:16.772Z,93980.75
2024-03-02T07:09:44.806Z,93981.50
2024-03-02T07:12:12.895Z,93980.47
2024-03-02T07:15:12.443Z,93976.41
2024-03-02T07:17:40.574Z,93976.00
2024-03-02T07:20:09.342Z,93965.50
2024-03-02T07:22:41.073Z,93961.84
2024-03-02T07:26:54.610Z,93966.81
2024-03-02T07:27:58.864Z,93960.31
2024-03-02T07:30:29.000Z,93964.78
2024-03-02T07:32:57.803Z,93958.47
2024-03-02T07:35:28.693Z,93960.69
2024-03-02T07:37:57.865Z,93957.22
2024-03-02T07:40:26.062Z,93958.22
2024-03-02T07:42:54.164Z,93953.94
2024-03-02T07:45:22.339Z,93948.94
2024-03-02T07:47:52.183Z,93951.84
2024-03-02T07:50:20.730Z,93952.78
2024-03-02T07:52:48.778Z,93955.16
2024-03-02T07:55:17.870Z,93952.63
2024-03-02T07:57:46.067Z,93932.50
2024-03-02T08:00:16.491Z,93926.69
2024-03-02T08:02:44.606Z,93935.44
2024-03-02T08:05:14.127Z,93925.75
2024-03-02T08:07:42.786Z,93927.69
2024-03-02T08:10:11.456Z,93931.47
2024-03-02T08:12:39.591Z,93921.22
2024-03-02T08:15:08.715Z,93920.41
2024-03-02T08:17:38.344Z,93908.09
2024-03-02T08:20:09.394Z,93913.97
2024-03-02T08:22:38.925Z,93914.28
2024-03-02T08:25:07.590Z,93908.44
2024-03-02T08:27:35.840Z,93903.56
2024-03-02T08:30:07.877Z,93904.19
2024-03-02T08:32:36.391Z,93900.63
2024-03-02T08:35:04.912Z,93896.94
2024-03-02T08:37:32.974Z,93894.34
2024-03-02T08:40:02.572Z,93892.38
2024-03-02T08:42:30.859Z,93888.28
2024-03-02T08:44:58.966Z,93878.97
2024-03-02T08:47:27.019Z,93883.03
2024-03-02T08:49:56.793Z,93878.97
2024-03-02T08:52:25.967Z,93877.59
2024-03-02T08:54:54.004Z,93874.50
2024-03-02T08:57:23.418Z,93881.56
2024-03-02T08:59:51.572Z,93874.78
2024-03-02T09:02:19.644Z,93879.44
2024-03-02T09:04:47.748Z,93875.31
2024-03-02T09:07:16.013Z,93867.72
2024-03-02T09:09:44.064Z,93868.34
2024-03-02T09:12:13.985Z,93862.94
2024-03-02T09:14:43.856Z,93869.94
2024-03-02T09:17:12.999Z,93866.88
2024-03-02T09:19:41.775Z,93862.31
2024-03-02T09:22:11.022Z,93862.81
2024-03-02T09:24:39.140Z,93862.94
2024-03-02T09:27:07.268Z,93868.03
2024-03-02T09:29:35.267Z,93852.41
2024-03-02T09:32:05.213Z,93859.69
2024-03-02T09:34:33.317Z,93852.50
2024-03-02T09:37:01.549Z,93857.03
2024-03-02T09:39:29.685Z,93844.81
2024-03-02T09:41:57.799Z,93839.66
2024-03-02T09:44:26.751Z,93847.56
2024-03-02T09:46:55.019Z,93841.28
2024-03-02T09:49:25.029Z,93840.00
2024-03-02T09:51:53.143Z,93837.47
2024-03-02T09:54:23.389Z,93842.00
2024-03-02T09:56:52.945Z,93839.81
2024-03-02T09:59:21.899Z,93842.28
2024-03-02T10:02:08.732Z,93829.28
2024-03-02T10:04:38.249Z,93817.34
2024-03-02T10:07:14.076Z,93817.34
2024-03-02T10:09:42.685Z,93807.03
2024-03-02T10:12:13.497Z,93808.06
2024-03-02T10:14:42.065Z,93804.44
2024-03-02T10:17:11.535Z,93822.56
2024-03-02T10:19:41.915Z,93818.63
2024-03-02T10:22:12.793Z,93811.88
2024-03-02T10:24:42.225Z,93799.31
2024-03-02T10:27:12.123Z,93797.66
2024-03-02T10:29:42.103Z,93807.06
2024-03-02T10:32:13.765Z,93800.28
2024-03-02T10:34:44.400Z,93795.69
2024-03-02T10:37:14.229Z,93803.53
2024-03-02T10:39:42.834Z,93800.91
2024-03-02T10:42:11.648Z,93789.34
2024-03-02T10:44:39.819Z,93790.47
2024-03-02T10:47:08.038Z,93778.00
2024-03-02T10:49:36.098Z,93774.34
2024-03-02T10:52:06.186Z,93771.28
2024-03-02T10:54:38.214Z,93772.38
2024-03-02T10:57:10.955Z,93777.59
2024-03-02T10:59:45.877Z,93784.38
2024-03-02T11:02:16.061Z,93779.63
2024-03-02T11:04:44.678Z,93770.16
2024-03-02T11:07:15.336Z,93760.34
2024-03-02T11:09:47.234Z,93766.66
2024-03-02T11:12:21.439Z,93760.44
2024-03-02T11:14:49.542Z,93760.94
2024-03-02T11:17:18.726Z,93750.47
2024-03-02T11:19:48.402Z,93754.66
2024-03-02T11:22:18.426Z,93754.63
2024-03-02T11:24:51.118Z,93740.06
2024-03-02T11:28:04.338Z,93741.63
2024-03-02T11:30:56.676Z,93736.94
2024-03-02T11:33:30.910Z,93734.34
2024-03-02T11:36:00.044Z,93739.81
2024-03-02T11:38:34.704Z,93719.22
2024-03-02T11:41:04.364Z,93704.13
2024-03-02T11:43:33.310Z,93706.72
2024-03-02T11:46:02.471Z,93704.63
2024-03-02T11:48:31.619Z,93703.09
2024-03-02T11:51:02.382Z,93706.75
2024-03-02T11:53:33.164Z,93694.78
2024-03-02T11:56:04.320Z,93703.13
2024-03-02T11:58:32.547Z,93690.06
2024-03-02T12:01:00.670Z,93676.22
2024-03-02T12:03:29.011Z,93678.53
2024-03-02T12:05:58.078Z,93659.72
2024-03-02T12:08:27.155Z,93646.66
2024-03-02T12:11:00.279Z,93636.19
2024-03-02T12:13:30.081Z,93633.03
2024-03-02T12:15:58.850Z,93633.03
2024-03-02T12:18:27.862Z,93632.03
2024-03-02T12:20:58.802Z,93624.72
2024-03-02T12:23:27.521Z,93621.56
2024-03-02T12:25:56.138Z,93613.97
2024-03-02T12:28:24.224Z,93608.00
2024-03-02T12:30:54.018Z,93596.53
2024-03-02T12:33:22.690Z,93592.88
2024-03-02T12:35:52.015Z,93597.31
2024-03-02T12:38:20.987Z,93596.50
2024-03-02T12:40:50.408Z,93596.50
2024-03-02T12:43:18.527Z,93597.56
2024-03-02T12:45:46.978Z,93605.41
2024-03-02T12:48:16.984Z,93609.06
2024-03-02T12:50:45.525Z,93589.50
2024-03-02T12:53:18.046Z,93582.94
2024-03-02T12:55:46.757Z,93588.19
2024-03-02T12:58:20.597Z,93588.72
2024-03-02T13:00:48.775Z,93585.03
2024-03-02T13:03:22.144Z,93587.09
2024-03-02T13:05:54.477Z,93592.81
2024-03-02T13:08:22.615Z,93586.56
2024-03-02T13:10:51.181Z,93583.44
2024-03-02T13:13:19.595Z,93588.72
2024-03-02T13:15:47.695Z,93592.38
2024-03-02T13:18:15.971Z,93598.09
2024-03-02T13:20:45.450Z,93604.88
2024-03-02T13:23:13.490Z,93588.72
2024-03-02T13:25:41.513Z,93578.78
2024-03-02T13:28:09.990Z,93567.81
2024-03-02T13:30:38.411Z,93572.50
2024-03-02T13:33:06.754Z,93576.41
2024-03-02T13:35:34.816Z,93573.53
2024-03-02T13:38:04.298Z,93582.69
2024-03-02T13:40:36.552Z,93586.09
2024-03-02T13:43:05.061Z,93588.44
2024-03-02T13:45:33.136Z,93593.94
2024-03-02T13:48:02.946Z,93584.56
2024-03-02T13:50:31.673Z,93582.97
2024-03-02T13:52:59.681Z,93584.56
2024-03-02T13:55:29.085Z,93586.13
2024-03-02T13:57:57.348Z,93579.59
2024-03-02T14:00:25.495Z,93580.38
2024-03-02T14:02:53.729Z,93582.97
2024-03-02T14:05:21.868Z,93578.81
2024-03-02T14:07:49.907Z,93576.19
2024-03-02T14:10:19.289Z,93580.91
2024-03-02T14:12:48.773Z,93587.94
2024-03-02T14:15:19.319Z,93588.19
2024-03-02T14:17:48.870Z,93587.94
2024-03-02T14:20:22.858Z,93585.56
2024-03-02T14:22:51.533Z,93581.88
2024-03-02T14:25:20.368Z,93576.13
2024-03-02T14:28:08.325Z,93573.50
2024-03-02T14:30:38.493Z,93566.19
2024-03-02T14:33:07.224Z,93553.91
2024-03-02T14:35:35.623Z,93560.44
2024-03-02T14:38:03.833Z,93553.09
2024-03-02T14:40:31.957Z,93545.78
2024-03-02T14:43:01.537Z,93538.44
2024-03-02T14:45:29.912Z,93524.88
2024-03-02T14:48:00.741Z,93523.31
2024-03-02T14:50:29.016Z,93510.75
2024-03-02T14:52:59.091Z,93508.66
2024-03-02T14:55:27.181Z,93495.06
2024-03-02T14:57:55.369Z,93488.28
2024-03-02T15:00:24.841Z,93479.66
2024-03-02T15:02:53.170Z,93485.63
2024-03-02T15:05:21.275Z,93477.28
2024-03-02T15:07:49.328Z,93472.81
2024-03-02T15:10:18.136Z,93479.66
2024-03-02T15:12:46.583Z,93469.97
2024-03-02T15:15:14.605Z,93469.47
2024-03-02T15:17:44.591Z,93466.31
2024-03-02T15:20:13.194Z,93456.63
2024-03-02T15:22:41.262Z,93463.44
2024-03-02T15:25:10.185Z,93455.31
2024-03-02T15:27:38.508Z,93444.59
2024-03-02T15:30:08.185Z,93443.31
2024-03-02T15:32:38.047Z,93447.75
2024-03-02T15:35:08.294Z,93452.19
2024-03-02T15:37:36.421Z,93455.34
2024-03-02T15:40:07.774Z,93456.13
2024-03-02T15:42:36.133Z,93447.00
2024-03-02T15:45:05.794Z,93448.56
2024-03-02T15:47:33.978Z,93443.34
2024-03-02T15:50:02.062Z,93458.50
2024-03-02T15:52:31.554Z,93455.13
2024-03-02T15:54:59.633Z,93461.13
2024-03-02T15:57:27.877Z,93450.94
2024-03-02T15:59:55.931Z,93453.81
2024-03-02T16:02:24.223Z,93458.50
2024-03-02T16:04:52.825Z,93458.50
2024-03-02T16:07:20.881Z,93455.38
2024-03-02T16:09:50.356Z,93449.38
2024-03-02T16:12:18.434Z,93450.69
2024-03-02T16:14:46.525Z,93443.91
2024-03-02T16:17:14.549Z,93458.03
2024-03-02T16:19:42.930Z,93450.22
2024-03-02T16:22:12.573Z,93450.75
2024-03-02T16:24:40.864Z,93449.75
2024-03-02T16:27:10.382Z,93441.38
2024-03-02T16:29:38.580Z,93451.84
2024-03-02T16:32:06.880Z,93444.53
2024-03-02T16:34:34.981Z,93448.75
2024-03-02T16:37:04.486Z,93449.28
2024-03-02T16:39:32.663Z,93452.41
2024-03-02T16:42:01.044Z,93448.25
2024-03-02T16:44:30.450Z,93443.03
2024-03-02T16:46:58.464Z,93443.59
2024-03-02T16:49:26.556Z,93445.16
2024-03-02T16:51:54.637Z,93437.88
2024-03-02T16:54:23.144Z,93442.03
2024-03-02T16:56:51.195Z,93442.56
2024-03-02T16:59:19.226Z,93430.84
2024-03-02T17:01:48.027Z,93434.22
2024-03-02T17:04:16.129Z,93435.25
2024-03-02T17:06:44.308Z,93433.16
2024-03-02T17:09:12.324Z,93438.13
2024-03-02T17:11:40.363Z,93436.31
2024-03-02T17:14:08.547Z,93433.69
2024-03-02T17:16:36.574Z,93442.03
2024-03-02T17:19:06.135Z,93436.81
2024-03-02T17:21:34.774Z,93434.72
2024-03-02T17:24:03.862Z,93436.31
2024-03-02T17:26:32.208Z,93437.91
2024-03-02T17:29:00.231Z,93438.94
2024-03-02T17:31:28.313Z,93439.72
2024-03-02T17:33:56.528Z,93441.03
2024-03-02T17:36:25.977Z,93443.66
2024-03-02T17:38:54.099Z,93436.38
2024-03-02T17:41:22.165Z,93440.00
2024-03-02T17:43:50.197Z,93436.34
2024-03-02T17:46:18.275Z,93443.66
2024-03-02T17:48:46.386Z,93444.69
2024-03-02T17:51:14.432Z,93457.75
2024-03-02T17:53:44.178Z,93453.06
2024-03-02T17:56:12.606Z,93459.31
2024-03-02T17:58:40.776Z,93449.16
2024-03-02T18:01:08.886Z,93448.88
2024-03-02T18:03:36.957Z,93445.75
2024-03-02T18:06:05.542Z,93439.00
2024-03-02T18:08:36.073Z,93443.69
2024-03-02T18:11:08.396Z,93447.34
2024-03-02T18:13:36.797Z,93449.44
2024-03-02T18:16:05.878Z,93453.88
2024-03-02T18:18:34.143Z,93455.69
2024-03-02T18:21:03.752Z,93454.38
2024-03-02T18:23:31.885Z,93456.69
2024-03-02T18:26:00.072Z,93458.78
2024-03-02T18:28:29.466Z,93454.09
2024-03-02T18:30:57.489Z,93452.31
2024-03-02T18:33:25.576Z,93442.66
2024-03-02T18:35:53.610Z,93443.19
2024-03-02T18:38:21.675Z,93437.97
2024-03-02T18:40:49.734Z,93435.31
2024-03-02T18:43:17.853Z,93438.44
2024-03-02T18:45:47.379Z,93444.19
2024-03-02T18:48:15.999Z,93432.19
2024-03-02T18:50:44.823Z,93429.06
2024-03-02T18:53:13.986Z,93431.66
2024-03-02T18:55:42.130Z,93426.97
2024-03-02T18:58:10.202Z,93421.50
2024-03-02T19:00:39.056Z,93424.38
2024-03-02T19:03:11.110Z,93425.41
2024-03-02T19:05:40.107Z,93423.34
2024-03-02T19:08:09.197Z,93426.47
2024-03-02T19:10:37.360Z,93424.91
2024-03-02T19:13:07.133Z,93425.41
2024-03-02T19:15:35.240Z,93433.25
2024-03-02T19:18:03.425Z,93431.16
2024-03-02T19:20:32.892Z,93431.66
2024-03-02T19:23:01.453Z,93417.56
2024-03-02T19:25:29.595Z,93411.31
2024-03-02T19:27:57.669Z,93419.13
2024-03-02T19:30:26.301Z,93412.88
2024-03-02T19:32:54.402Z,93424.63
2024-03-02T19:35:22.556Z,93418.06
2024-03-02T19:37:52.527Z,93407.66
2024-03-02T19:40:20.617Z,93407.13
2024-03-02T19:42:48.682Z,93404.78
2024-03-02T19:45:17.062Z,93404.00
2024-03-02T19:47:45.057Z,93419.13
2024-03-02T19:50:15.249Z,93419.63
2024-03-02T19:52:43.341Z,93418.06
2024-03-02T19:55:14.055Z,93414.94
2024-03-02T19:57:45.888Z,93412.88
2024-03-02T20:00:15.361Z,93407.66
2024-03-02T20:02:44.085Z,93417.03
2024-03-02T20:05:13.071Z,93413.38
2024-03-02T20:07:42.714Z,93411.03
2024-03-02T20:10:14.092Z,93408.69
2024-03-02T20:12:42.884Z,93408.69
2024-03-02T20:15:13.778Z,93414.69
2024-03-02T20:17:41.983Z,93405.03
2024-03-02T20:20:10.952Z,93406.09
2024-03-02T20:22:38.989Z,93414.94
2024-03-02T20:25:08.131Z,93410.22
2024-03-02T20:27:37.747Z,93418.00
2024-03-02T20:30:07.819Z,93420.06
2024-03-02T20:32:35.900Z,93410.66
2024-03-02T20:35:04.186Z,93413.28
2024-03-02T20:37:32.273Z,93404.94
2024-03-02T20:40:00.719Z,93407.59
2024-03-02T20:42:28.857Z,93397.44
2024-03-02T20:44:58.483Z,93403.97
2024-03-02T20:47:26.517Z,93402.13
2024-03-02T20:49:54.606Z,93398.28
2024-03-02T20:52:22.761Z,93401.91
2024-03-02T20:54:50.943Z,93402.13
2024-03-02T20:57:20.213Z,93392.75
2024-03-02T20:59:48.423Z,93409.13
2024-03-02T21:02:18.096Z,93407.03
2024-03-02T21:04:47.231Z,93406.50
2024-03-02T21:07:15.558Z,93407.06
2024-03-02T21:09:43.690Z,93407.56
2024-03-02T21:12:11.734Z,93406.50
2024-03-02T21:14:41.180Z,93407.59
2024-03-02T21:17:09.409Z,93400.31
2024-03-02T21:19:38.809Z,93390.94
2024-03-02T21:22:07.312Z,93381.03
2024-03-02T21:24:36.688Z,93395.06
2024-03-02T21:27:05.143Z,93381.03
2024-03-02T21:29:33.157Z,93384.16
2024-03-02T21:32:01.248Z,93383.09
2024-03-02T21:34:29.572Z,93386.25
2024-03-02T21:36:59.882Z,93397.16
2024-03-02T21:39:35.841Z,93386.72
2024-03-02T21:42:08.163Z,93398.72
2024-03-02T21:44:36.208Z,93387.81
2024-03-02T21:47:06.844Z,93383.09
2024-03-02T21:49:35.390Z,93387.81
2024-03-02T21:52:05.354Z,93389.38
2024-03-02T21:54:33.525Z,93388.06
2024-03-02T21:57:03.571Z,93386.25
2024-03-02T21:59:31.660Z,93385.16
2024-03-02T22:01:59.758Z,93386.72
2024-03-02T22:04:27.890Z,93376.31
2024-03-02T22:06:55.983Z,93371.63
2024-03-02T22:09:25.468Z,93366.94
2024-03-02T22:11:53.803Z,93366.94
2024-03-02T22:14:22.180Z,93365.38
2024-03-02T22:16:50.447Z,93368.75
2024-03-02T22:19:18.512Z,93361.22
2024-03-02T22:21:47.575Z,93354.97
2024-03-02T22:24:16.109Z,93351.84
2024-03-02T22:26:45.578Z,93357.03
2024-03-02T22:29:13.710Z,93356.53
2024-03-02T22:31:41.765Z,93354.44
2024-03-02T22:34:10.011Z,93350.78
2024-03-02T22:36:38.120Z,93355.47
2024-03-02T22:39:06.424Z,93352.34
2024-03-02T22:41:34.517Z,93352.34
2024-03-02T22:44:03.965Z,93362.78
2024-03-02T22:46:31.975Z,93347.63
2024-03-02T22:49:00.099Z,93349.69
2024-03-02T22:51:28.933Z,93361.16
2024-03-02T22:53:56.970Z,93355.41
2024-03-02T22:56:25.006Z,93353.84
2024-03-02T22:58:53.048Z,93358.81
2024-03-02T23:01:23.803Z,93348.66
2024-03-02T23:03:51.901Z,93345.03
2024-03-02T23:06:20.732Z,93353.38
2024-03-02T23:08:48.805Z,93354.44
2024-03-02T23:11:16.931Z,93358.09
2024-03-02T23:13:44.973Z,93365.88
2024-03-02T23:16:13.097Z,93363.28
2024-03-02T23:18:42.665Z,93354.44
2024-03-02T23:21:10.799Z,93358.06
2024-03-02T23:23:39.285Z,93359.84
2024-03-02T23:26:07.815Z,93368.38
2024-03-02T23:28:35.968Z,93367.75
2024-03-02T23:31:05.194Z,93364.63
2024-03-02T23:33:33.370Z,93370.25
2024-03-02T23:36:03.638Z,93370.31
2024-03-02T23:38:31.771Z,93381.28
2024-03-02T23:41:09.370Z,93381.34
2024-03-02T23:43:37.906Z,93375.63
2024-03-02T23:46:07.719Z,93375.91
2024-03-02T23:48:36.242Z,93368.63
2024-03-02T23:51:06.019Z,93365.78
2024-03-02T23:53:34.079Z,93366.28
2024-03-02T23:56:12.447Z,93359.78
2024-03-02T23:58:41.068Z,93353.81
